sensor_id;sensor_type;location;lat;lon;timestamp;temperature;humidity
26479;DHT22;14163;-26.142;27.992;2024-01-30T00:00:19;23.70;99.90
26479;DHT22;14163;-26.142;27.992;2024-01-30T00:02:48;23.50;99.90
26479;DHT22;14163;-26.142;27.992;2024-01-30T00:05:20;23.40;99.90
26479;DHT22;14163;-26.142;27.992;2024-01-30T00:07:49;23.50;99.90
26479;DHT22;14163;-26.142;27.992;2024-01-30T00:10:18;23.50;99.90
26479;DHT22;14163;-26.142;27.992;2024-01-30T00:12:48;23.40;99.90
26479;DHT22;14163;-26.142;27.992;2024-01-30T00:15:17;23.40;99.90
26479;DHT22;14163;-26.142;27.992;2024-01-30T00:17:46;23.40;99.90
26479;DHT22;14163;-26.142;27.992;2024-01-30T00:20:15;23.50;99.90
26479;DHT22;14163;-26.142;27.992;2024-01-30T00:22:46;23.50;99.90
26479;DHT22;14163;-26.142;27.992;2024-01-30T00:25:15;23.50;99.90
26479;DHT22;14163;-26.142;27.992;2024-01-30T00:27:44;23.40;99.90
26479;DHT22;14163;-26.142;27.992;2024-01-30T00:30:14;23.40;99.90
26479;DHT22;14163;-26.142;27.992;2024-01-30T00:32:43;23.30;99.90
26479;DHT22;14163;-26.142;27.992;2024-01-30T00:35:13;23.40;99.90
26479;DHT22;14163;-26.142;27.992;2024-01-30T00:37:42;23.40;99.90
26479;DHT22;14163;-26.142;27.992;2024-01-30T00:40:13;23.30;99.90
26479;DHT22;14163;-26.142;27.992;2024-01-30T00:42:42;23.30;99.90
26479;DHT22;14163;-26.142;27.992;2024-01-30T00:45:13;23.00;99.90
26479;DHT22;14163;-26.142;27.992;2024-01-30T00:47:43;22.80;99.90
26479;DHT22;14163;-26.142;27.992;2024-01-30T00:50:12;22.80;99.90
26479;DHT22;14163;-26.142;27.992;2024-01-30T00:52:41;22.90;99.90
26479;DHT22;14163;-26.142;27.992;2024-01-30T00:55:13;23.00;99.90
26479;DHT22;14163;-26.142;27.992;2024-01-30T00:57:42;23.00;99.90
26479;DHT22;14163;-26.142;27.992;2024-01-30T01:00:13;23.00;99.90
26479;DHT22;14163;-26.142;27.992;2024-01-30T01:02:43;23.00;99.90
26479;DHT22;14163;-26.142;27.992;2024-01-30T01:05:13;23.00;99.90
26479;DHT22;14163;-26.142;27.992;2024-01-30T01:07:42;23.00;99.90
26479;DHT22;14163;-26.142;27.992;2024-01-30T01:10:14;23.00;99.90
26479;DHT22;14163;-26.142;27.992;2024-01-30T01:12:43;23.00;99.90
26479;DHT22;14163;-26.142;27.992;2024-01-30T01:15:12;23.00;99.90
26479;DHT22;14163;-26.142;27.992;2024-01-30T01:17:42;23.00;99.90
26479;DHT22;14163;-26.142;27.992;2024-01-30T01:20:11;23.10;99.90
26479;DHT22;14163;-26.142;27.992;2024-01-30T01:22:40;23.00;99.90
26479;DHT22;14163;-26.142;27.992;2024-01-30T01:25:09;23.10;99.90
26479;DHT22;14163;-26.142;27.992;2024-01-30T01:27:40;23.10;99.90
26479;DHT22;14163;-26.142;27.992;2024-01-30T01:30:11;23.00;99.90
26479;DHT22;14163;-26.142;27.992;2024-01-30T01:32:45;23.10;99.90
26479;DHT22;14163;-26.142;27.992;2024-01-30T01:35:17;23.20;99.90
26479;DHT22;14163;-26.142;27.992;2024-01-30T01:37:47;23.20;99.90
26479;DHT22;14163;-26.142;27.992;2024-01-30T01:40:22;23.20;99.90
26479;DHT22;14163;-26.142;27.992;2024-01-30T01:42:54;23.20;99.90
26479;DHT22;14163;-26.142;27.992;2024-01-30T01:45:23;23.20;99.90
26479;DHT22;14163;-26.142;27.992;2024-01-30T01:47:52;23.20;99.90
26479;DHT22;14163;-26.142;27.992;2024-01-30T01:50:22;23.20;99.90
26479;DHT22;14163;-26.142;27.992;2024-01-30T01:52:52;23.20;99.90
26479;DHT22;14163;-26.142;27.992;2024-01-30T01:55:22;23.10;99.90
26479;DHT22;14163;-26.142;27.992;2024-01-30T01:57:55;23.10;99.90
26479;DHT22;14163;-26.142;27.992;2024-01-30T02:00:25;23.10;99.90
26479;DHT22;14163;-26.142;27.992;2024-01-30T02:02:55;23.20;99.90
26479;DHT22;14163;-26.142;27.992;2024-01-30T02:05:25;23.20;99.90
26479;DHT22;14163;-26.142;27.992;2024-01-30T02:07:55;23.10;99.90
26479;DHT22;14163;-26.142;27.992;2024-01-30T02:10:25;23.20;99.90
26479;DHT22;14163;-26.142;27.992;2024-01-30T02:12:56;23.10;99.90
26479;DHT22;14163;-26.142;27.992;2024-01-30T02:15:25;23.20;99.90
26479;DHT22;14163;-26.142;27.992;2024-01-30T02:17:54;23.10;99.90
26479;DHT22;14163;-26.142;27.992;2024-01-30T02:20:25;23.10;99.90
26479;DHT22;14163;-26.142;27.992;2024-01-30T02:22:59;23.10;99.90
26479;DHT22;14163;-26.142;27.992;2024-01-30T02:25:33;23.10;99.90
26479;DHT22;14163;-26.142;27.992;2024-01-30T02:28:03;23.10;99.90
26479;DHT22;14163;-26.142;27.992;2024-01-30T02:30:32;23.00;99.90
26479;DHT22;14163;-26.142;27.992;2024-01-30T02:33:01;23.10;99.90
26479;DHT22;14163;-26.142;27.992;2024-01-30T02:35:30;23.00;99.90
26479;DHT22;14163;-26.142;27.992;2024-01-30T02:38:02;23.10;99.90
26479;DHT22;14163;-26.142;27.992;2024-01-30T02:40:31;23.00;99.90
26479;DHT22;14163;-26.142;27.992;2024-01-30T02:43:01;23.00;99.90
26479;DHT22;14163;-26.142;27.992;2024-01-30T02:45:30;23.00;99.90
26479;DHT22;14163;-26.142;27.992;2024-01-30T02:47:59;23.00;99.90
26479;DHT22;14163;-26.142;27.992;2024-01-30T02:50:28;23.00;99.90
26479;DHT22;14163;-26.142;27.992;2024-01-30T02:52:57;22.90;99.90
26479;DHT22;14163;-26.142;27.992;2024-01-30T02:55:28;23.00;99.90
26479;DHT22;14163;-26.142;27.992;2024-01-30T02:57:58;23.00;99.90
26479;DHT22;14163;-26.142;27.992;2024-01-30T03:00:27;23.00;99.90
26479;DHT22;14163;-26.142;27.992;2024-01-30T03:02:56;23.00;99.90
26479;DHT22;14163;-26.142;27.992;2024-01-30T03:05:26;22.90;99.90
26479;DHT22;14163;-26.142;27.992;2024-01-30T03:07:55;22.80;99.90
26479;DHT22;14163;-26.142;27.992;2024-01-30T03:10:24;22.90;99.90
26479;DHT22;14163;-26.142;27.992;2024-01-30T03:12:55;22.90;99.90
26479;DHT22;14163;-26.142;27.992;2024-01-30T03:15:24;22.90;99.90
26479;DHT22;14163;-26.142;27.992;2024-01-30T03:17:54;22.90;99.90
26479;DHT22;14163;-26.142;27.992;2024-01-30T03:20:23;22.80;99.90
26479;DHT22;14163;-26.142;27.992;2024-01-30T03:22:56;22.80;99.90
26479;DHT22;14163;-26.142;27.992;2024-01-30T03:25:26;22.80;99.90
26479;DHT22;14163;-26.142;27.992;2024-01-30T03:27:57;22.80;99.90
26479;DHT22;14163;-26.142;27.992;2024-01-30T03:30:26;22.80;99.90
26479;DHT22;14163;-26.142;27.992;2024-01-30T03:32:55;22.70;99.90
26479;DHT22;14163;-26.142;27.992;2024-01-30T03:35:25;22.70;99.90
26479;DHT22;14163;-26.142;27.992;2024-01-30T03:37:54;22.60;99.90
26479;DHT22;14163;-26.142;27.992;2024-01-30T03:40:23;22.60;99.90
26479;DHT22;14163;-26.142;27.992;2024-01-30T03:42:52;22.60;99.90
26479;DHT22;14163;-26.142;27.992;2024-01-30T03:45:23;22.60;99.90
26479;DHT22;14163;-26.142;27.992;2024-01-30T03:47:52;22.50;99.90
26479;DHT22;14163;-26.142;27.992;2024-01-30T03:50:22;22.50;99.90
26479;DHT22;14163;-26.142;27.992;2024-01-30T03:52:51;22.30;99.90
26479;DHT22;14163;-26.142;27.992;2024-01-30T03:55:20;22.10;99.90
26479;DHT22;14163;-26.142;27.992;2024-01-30T03:57:49;21.80;99.90
26479;DHT22;14163;-26.142;27.992;2024-01-30T04:00:18;21.70;99.90
26479;DHT22;14163;-26.142;27.992;2024-01-30T04:02:49;21.50;99.90
26479;DHT22;14163;-26.142;27.992;2024-01-30T04:05:19;21.50;99.90
26479;DHT22;14163;-26.142;27.992;2024-01-30T04:07:47;21.50;99.90
26479;DHT22;14163;-26.142;27.992;2024-01-30T04:10:17;21.60;99.90
26479;DHT22;14163;-26.142;27.992;2024-01-30T04:12:46;21.60;99.90
26479;DHT22;14163;-26.142;27.992;2024-01-30T04:15:15;21.70;99.90
26479;DHT22;14163;-26.142;27.992;2024-01-30T04:17:44;21.90;99.90
26479;DHT22;14163;-26.142;27.992;2024-01-30T04:20:16;22.00;99.90
26479;DHT22;14163;-26.142;27.992;2024-01-30T04:22:46;22.20;99.90
26479;DHT22;14163;-26.142;27.992;2024-01-30T04:25:15;22.40;99.90
26479;DHT22;14163;-26.142;27.992;2024-01-30T04:27:44;22.50;99.90
26479;DHT22;14163;-26.142;27.992;2024-01-30T04:30:14;22.60;99.90
26479;DHT22;14163;-26.142;27.992;2024-01-30T04:32:44;22.70;99.90
26479;DHT22;14163;-26.142;27.992;2024-01-30T04:35:15;22.70;99.90
26479;DHT22;14163;-26.142;27.992;2024-01-30T04:37:44;22.80;99.90
26479;DHT22;14163;-26.142;27.992;2024-01-30T04:40:13;22.80;99.90
26479;DHT22;14163;-26.142;27.992;2024-01-30T04:42:43;22.90;99.90
26479;DHT22;14163;-26.142;27.992;2024-01-30T04:45:12;23.00;99.90
26479;DHT22;14163;-26.142;27.992;2024-01-30T04:47:45;22.90;99.90
26479;DHT22;14163;-26.142;27.992;2024-01-30T04:50:19;23.00;99.90
26479;DHT22;14163;-26.142;27.992;2024-01-30T04:52:48;23.00;99.90
26479;DHT22;14163;-26.142;27.992;2024-01-30T04:55:18;23.10;99.90
26479;DHT22;14163;-26.142;27.992;2024-01-30T04:57:47;23.20;99.90
26479;DHT22;14163;-26.142;27.992;2024-01-30T05:00:16;23.20;99.90
26479;DHT22;14163;-26.142;27.992;2024-01-30T05:02:46;23.30;99.90
26479;DHT22;14163;-26.142;27.992;2024-01-30T05:05:15;23.30;99.90
26479;DHT22;14163;-26.142;27.992;2024-01-30T05:07:47;23.30;99.90
26479;DHT22;14163;-26.142;27.992;2024-01-30T05:10:16;23.40;99.90
26479;DHT22;14163;-26.142;27.992;2024-01-30T05:12:45;23.40;99.90
26479;DHT22;14163;-26.142;27.992;2024-01-30T05:15:15;23.30;99.90
26479;DHT22;14163;-26.142;27.992;2024-01-30T05:17:44;23.10;99.90
26479;DHT22;14163;-26.142;27.992;2024-01-30T05:20:14;23.00;99.90
26479;DHT22;14163;-26.142;27.992;2024-01-30T05:22:43;23.00;99.90
26479;DHT22;14163;-26.142;27.992;2024-01-30T05:25:15;22.90;99.90
26479;DHT22;14163;-26.142;27.992;2024-01-30T05:27:44;22.90;99.90
26479;DHT22;14163;-26.142;27.992;2024-01-30T05:30:14;22.90;99.90
26479;DHT22;14163;-26.142;27.992;2024-01-30T05:32:43;23.00;99.90
26479;DHT22;14163;-26.142;27.992;2024-01-30T05:35:12;23.00;99.90
26479;DHT22;14163;-26.142;27.992;2024-01-30T05:37:41;23.00;99.90
26479;DHT22;14163;-26.142;27.992;2024-01-30T05:40:13;22.90;99.90
26479;DHT22;14163;-26.142;27.992;2024-01-30T05:42:42;23.00;99.90
26479;DHT22;14163;-26.142;27.992;2024-01-30T05:45:12;23.00;99.90
26479;DHT22;14163;-26.142;27.992;2024-01-30T05:47:41;23.00;99.90
26479;DHT22;14163;-26.142;27.992;2024-01-30T05:50:10;23.00;99.90
26479;DHT22;14163;-26.142;27.992;2024-01-30T05:52:40;23.10;99.90
26479;DHT22;14163;-26.142;27.992;2024-01-30T05:55:09;23.20;99.90
26479;DHT22;14163;-26.142;27.992;2024-01-30T05:57:40;23.10;99.90
26479;DHT22;14163;-26.142;27.992;2024-01-30T06:00:10;23.20;99.90
26479;DHT22;14163;-26.142;27.992;2024-01-30T06:02:39;23.40;99.90
26479;DHT22;14163;-26.142;27.992;2024-01-30T06:05:09;23.50;99.90
26479;DHT22;14163;-26.142;27.992;2024-01-30T06:07:38;23.60;99.90
26479;DHT22;14163;-26.142;27.992;2024-01-30T06:10:08;23.80;99.90
26479;DHT22;14163;-26.142;27.992;2024-01-30T06:12:39;23.80;99.90
26479;DHT22;14163;-26.142;27.992;2024-01-30T06:15:09;23.90;99.90
26479;DHT22;14163;-26.142;27.992;2024-01-30T06:17:39;24.00;99.90
26479;DHT22;14163;-26.142;27.992;2024-01-30T06:20:09;24.00;99.90
26479;DHT22;14163;-26.142;27.992;2024-01-30T06:22:38;24.20;99.90
26479;DHT22;14163;-26.142;27.992;2024-01-30T06:25:08;24.30;99.90
26479;DHT22;14163;-26.142;27.992;2024-01-30T06:27:40;24.30;99.90
26479;DHT22;14163;-26.142;27.992;2024-01-30T06:30:10;24.40;99.90
26479;DHT22;14163;-26.142;27.992;2024-01-30T06:32:40;24.30;99.90
26479;DHT22;14163;-26.142;27.992;2024-01-30T06:35:09;24.30;99.90
26479;DHT22;14163;-26.142;27.992;2024-01-30T06:37:39;24.30;99.90
26479;DHT22;14163;-26.142;27.992;2024-01-30T06:40:09;24.10;99.90
26479;DHT22;14163;-26.142;27.992;2024-01-30T06:42:40;23.90;99.90
26479;DHT22;14163;-26.142;27.992;2024-01-30T06:45:09;23.80;99.90
26479;DHT22;14163;-26.142;27.992;2024-01-30T06:47:39;23.90;99.90
26479;DHT22;14163;-26.142;27.992;2024-01-30T06:50:08;24.10;99.90
26479;DHT22;14163;-26.142;27.992;2024-01-30T06:52:37;24.10;99.90
26479;DHT22;14163;-26.142;27.992;2024-01-30T06:55:07;24.40;99.90
26479;DHT22;14163;-26.142;27.992;2024-01-30T06:57:36;24.60;99.90
26479;DHT22;14163;-26.142;27.992;2024-01-30T07:00:08;24.70;99.90
26479;DHT22;14163;-26.142;27.992;2024-01-30T07:02:37;24.70;99.90
26479;DHT22;14163;-26.142;27.992;2024-01-30T07:05:07;24.70;99.90
26479;DHT22;14163;-26.142;27.992;2024-01-30T07:07:36;24.70;99.90
26479;DHT22;14163;-26.142;27.992;2024-01-30T07:10:06;24.90;99.90
26479;DHT22;14163;-26.142;27.992;2024-01-30T07:12:36;24.80;99.90
26479;DHT22;14163;-26.142;27.992;2024-01-30T07:15:07;25.00;99.90
26479;DHT22;14163;-26.142;27.992;2024-01-30T07:17:37;25.00;99.90
26479;DHT22;14163;-26.142;27.992;2024-01-30T07:20:07;25.00;99.90
26479;DHT22;14163;-26.142;27.992;2024-01-30T07:22:37;25.10;99.90
26479;DHT22;14163;-26.142;27.992;2024-01-30T07:25:07;25.10;99.90
26479;DHT22;14163;-26.142;27.992;2024-01-30T07:27:37;25.10;99.90
26479;DHT22;14163;-26.142;27.992;2024-01-30T07:30:08;25.20;99.90
26479;DHT22;14163;-26.142;27.992;2024-01-30T07:32:38;25.10;99.90
26479;DHT22;14163;-26.142;27.992;2024-01-30T07:35:07;25.10;99.90
26479;DHT22;14163;-26.142;27.992;2024-01-30T07:37:36;25.10;99.90
26479;DHT22;14163;-26.142;27.992;2024-01-30T07:40:06;25.00;99.90
26479;DHT22;14163;-26.142;27.992;2024-01-30T07:42:36;25.00;99.90
26479;DHT22;14163;-26.142;27.992;2024-01-30T07:45:07;25.00;99.90
26479;DHT22;14163;-26.142;27.992;2024-01-30T07:47:37;25.20;99.90
26479;DHT22;14163;-26.142;27.992;2024-01-30T07:50:07;25.40;99.90
26479;DHT22;14163;-26.142;27.992;2024-01-30T07:52:36;25.50;99.90
26479;DHT22;14163;-26.142;27.992;2024-01-30T07:55:06;25.70;99.90
26479;DHT22;14163;-26.142;27.992;2024-01-30T07:57:38;25.70;99.90
26479;DHT22;14163;-26.142;27.992;2024-01-30T08:00:10;25.50;99.90
26479;DHT22;14163;-26.142;27.992;2024-01-30T08:02:39;25.50;99.90
26479;DHT22;14163;-26.142;27.992;2024-01-30T08:05:09;25.60;99.90
26479;DHT22;14163;-26.142;27.992;2024-01-30T08:07:38;25.80;99.90
26479;DHT22;14163;-26.142;27.992;2024-01-30T08:10:08;25.90;99.90
26479;DHT22;14163;-26.142;27.992;2024-01-30T08:12:37;25.90;99.90
26479;DHT22;14163;-26.142;27.992;2024-01-30T08:15:08;26.00;99.90
26479;DHT22;14163;-26.142;27.992;2024-01-30T08:17:39;26.10;99.90
26479;DHT22;14163;-26.142;27.992;2024-01-30T08:20:08;26.00;99.90
26479;DHT22;14163;-26.142;27.992;2024-01-30T08:22:39;26.10;99.90
26479;DHT22;14163;-26.142;27.992;2024-01-30T08:25:08;26.30;99.90
26479;DHT22;14163;-26.142;27.992;2024-01-30T08:27:38;26.40;99.90
26479;DHT22;14163;-26.142;27.992;2024-01-30T08:30:10;26.50;99.90
26479;DHT22;14163;-26.142;27.992;2024-01-30T08:32:39;26.40;99.90
26479;DHT22;14163;-26.142;27.992;2024-01-30T08:35:08;26.30;99.90
26479;DHT22;14163;-26.142;27.992;2024-01-30T08:37:40;26.50;99.90
26479;DHT22;14163;-26.142;27.992;2024-01-30T08:40:10;26.70;99.90
26479;DHT22;14163;-26.142;27.992;2024-01-30T08:42:39;26.70;99.90
26479;DHT22;14163;-26.142;27.992;2024-01-30T08:45:10;26.70;99.90
26479;DHT22;14163;-26.142;27.992;2024-01-30T08:47:41;26.50;99.90
26479;DHT22;14163;-26.142;27.992;2024-01-30T08:50:10;26.40;99.90
26479;DHT22;14163;-26.142;27.992;2024-01-30T08:52:39;26.30;99.90
26479;DHT22;14163;-26.142;27.992;2024-01-30T08:55:08;26.40;99.90
26479;DHT22;14163;-26.142;27.992;2024-01-30T08:57:37;26.70;99.90
26479;DHT22;14163;-26.142;27.992;2024-01-30T09:00:09;26.90;99.90
26479;DHT22;14163;-26.142;27.992;2024-01-30T09:02:39;27.10;99.90
26479;DHT22;14163;-26.142;27.992;2024-01-30T09:05:08;27.20;99.90
26479;DHT22;14163;-26.142;27.992;2024-01-30T09:07:37;27.40;99.90
26479;DHT22;14163;-26.142;27.992;2024-01-30T09:10:07;27.40;99.90
26479;DHT22;14163;-26.142;27.992;2024-01-30T09:12:36;27.30;99.90
26479;DHT22;14163;-26.142;27.992;2024-01-30T09:15:06;27.40;99.90
26479;DHT22;14163;-26.142;27.992;2024-01-30T09:17:37;27.50;99.90
26479;DHT22;14163;-26.142;27.992;2024-01-30T09:20:07;27.50;99.90
26479;DHT22;14163;-26.142;27.992;2024-01-30T09:22:37;27.40;99.90
26479;DHT22;14163;-26.142;27.992;2024-01-30T09:25:06;27.50;99.90
26479;DHT22;14163;-26.142;27.992;2024-01-30T09:27:36;27.60;99.90
26479;DHT22;14163;-26.142;27.992;2024-01-30T09:30:06;27.70;99.90
26479;DHT22;14163;-26.142;27.992;2024-01-30T09:32:37;27.80;99.90
26479;DHT22;14163;-26.142;27.992;2024-01-30T09:35:06;27.90;99.90
26479;DHT22;14163;-26.142;27.992;2024-01-30T09:37:35;27.90;99.90
26479;DHT22;14163;-26.142;27.992;2024-01-30T09:40:05;27.90;99.90
26479;DHT22;14163;-26.142;27.992;2024-01-30T09:42:35;28.00;99.90
26479;DHT22;14163;-26.142;27.992;2024-01-30T09:45:05;28.00;99.90
26479;DHT22;14163;-26.142;27.992;2024-01-30T09:47:41;27.80;99.90
26479;DHT22;14163;-26.142;27.992;2024-01-30T09:50:11;27.80;99.90
26479;DHT22;14163;-26.142;27.992;2024-01-30T09:52:41;28.00;99.90
26479;DHT22;14163;-26.142;27.992;2024-01-30T09:55:11;28.00;99.90
26479;DHT22;14163;-26.142;27.992;2024-01-30T09:57:41;28.00;99.90
26479;DHT22;14163;-26.142;27.992;2024-01-30T10:00:12;28.20;99.90
26479;DHT22;14163;-26.142;27.992;2024-01-30T10:02:43;28.30;99.90
26479;DHT22;14163;-26.142;27.992;2024-01-30T10:05:16;28.40;99.90
26479;DHT22;14163;-26.142;27.992;2024-01-30T10:07:57;28.50;99.90
26479;DHT22;14163;-26.142;27.992;2024-01-30T10:10:26;28.50;99.90
26479;DHT22;14163;-26.142;27.992;2024-01-30T10:12:55;28.70;99.90
26479;DHT22;14163;-26.142;27.992;2024-01-30T10:15:25;28.80;99.90
26479;DHT22;14163;-26.142;27.992;2024-01-30T10:17:56;28.70;99.90
26479;DHT22;14163;-26.142;27.992;2024-01-30T10:20:26;28.40;99.90
26479;DHT22;14163;-26.142;27.992;2024-01-30T10:22:55;28.40;99.90
26479;DHT22;14163;-26.142;27.992;2024-01-30T10:25:26;28.40;99.90
26479;DHT22;14163;-26.142;27.992;2024-01-30T10:27:55;28.30;99.90
26479;DHT22;14163;-26.142;27.992;2024-01-30T10:30:25;28.50;99.90
26479;DHT22;14163;-26.142;27.992;2024-01-30T10:32:56;28.60;99.90
26479;DHT22;14163;-26.142;27.992;2024-01-30T10:35:25;28.80;99.90
26479;DHT22;14163;-26.142;27.992;2024-01-30T10:37:56;28.90;99.90
26479;DHT22;14163;-26.142;27.992;2024-01-30T10:40:28;29.00;99.90
26479;DHT22;14163;-26.142;27.992;2024-01-30T10:42:57;29.10;99.90
26479;DHT22;14163;-26.142;27.992;2024-01-30T10:45:29;29.20;99.90
26479;DHT22;14163;-26.142;27.992;2024-01-30T10:48:02;29.30;99.90
26479;DHT22;14163;-26.142;27.992;2024-01-30T10:50:33;29.50;99.90
26479;DHT22;14163;-26.142;27.992;2024-01-30T10:53:04;29.60;99.90
26479;DHT22;14163;-26.142;27.992;2024-01-30T10:55:34;29.80;99.90
26479;DHT22;14163;-26.142;27.992;2024-01-30T10:58:04;29.90;99.90
26479;DHT22;14163;-26.142;27.992;2024-01-30T11:00:34;30.10;99.90
26479;DHT22;14163;-26.142;27.992;2024-01-30T11:03:05;30.10;99.90
26479;DHT22;14163;-26.142;27.992;2024-01-30T11:05:34;30.20;99.90
26479;DHT22;14163;-26.142;27.992;2024-01-30T11:08:12;30.10;99.90
26479;DHT22;14163;-26.142;27.992;2024-01-30T11:10:47;30.00;99.90
26479;DHT22;14163;-26.142;27.992;2024-01-30T11:13:18;29.90;99.90
26479;DHT22;14163;-26.142;27.992;2024-01-30T11:15:48;29.80;99.90
26479;DHT22;14163;-26.142;27.992;2024-01-30T11:18:26;29.70;99.90
26479;DHT22;14163;-26.142;27.992;2024-01-30T11:20:57;29.80;99.90
26479;DHT22;14163;-26.142;27.992;2024-01-30T11:23:28;30.00;99.90
26479;DHT22;14163;-26.142;27.992;2024-01-30T11:25:58;30.20;99.90
26479;DHT22;14163;-26.142;27.992;2024-01-30T11:28:32;30.30;99.90
26479;DHT22;14163;-26.142;27.992;2024-01-30T11:31:06;30.40;99.90
26479;DHT22;14163;-26.142;27.992;2024-01-30T11:33:37;30.30;99.90
26479;DHT22;14163;-26.142;27.992;2024-01-30T11:36:06;30.30;99.90
26479;DHT22;14163;-26.142;27.992;2024-01-30T11:38:35;30.10;99.90
26479;DHT22;14163;-26.142;27.992;2024-01-30T11:41:05;30.20;99.90
26479;DHT22;14163;-26.142;27.992;2024-01-30T11:43:34;30.40;99.90
26479;DHT22;14163;-26.142;27.992;2024-01-30T11:46:07;30.60;99.90
26479;DHT22;14163;-26.142;27.992;2024-01-30T11:48:38;30.70;99.90
26479;DHT22;14163;-26.142;27.992;2024-01-30T11:51:08;30.60;99.90
26479;DHT22;14163;-26.142;27.992;2024-01-30T11:53:37;30.40;99.90
26479;DHT22;14163;-26.142;27.992;2024-01-30T11:56:08;30.40;99.90
26479;DHT22;14163;-26.142;27.992;2024-01-30T11:58:37;30.00;99.90
26479;DHT22;14163;-26.142;27.992;2024-01-30T12:01:06;29.90;99.90
26479;DHT22;14163;-26.142;27.992;2024-01-30T12:03:37;30.00;99.90
26479;DHT22;14163;-26.142;27.992;2024-01-30T14:18:32;24.70;99.90
26479;DHT22;14163;-26.142;27.992;2024-01-30T14:21:02;24.70;99.90
26479;DHT22;14163;-26.142;27.992;2024-01-30T14:23:31;25.20;99.90
26479;DHT22;14163;-26.142;27.992;2024-01-30T14:26:00;25.90;99.90
26479;DHT22;14163;-26.142;27.992;2024-01-30T14:28:30;26.50;99.90
26479;DHT22;14163;-26.142;27.992;2024-01-30T14:30:59;27.00;99.90
26479;DHT22;14163;-26.142;27.992;2024-01-30T14:33:28;27.50;99.90
26479;DHT22;14163;-26.142;27.992;2024-01-30T14:35:59;27.80;99.90
26479;DHT22;14163;-26.142;27.992;2024-01-30T14:38:28;27.90;99.90
26479;DHT22;14163;-26.142;27.992;2024-01-30T14:40:57;28.00;99.90
26479;DHT22;14163;-26.142;27.992;2024-01-30T14:43:26;28.10;99.90
26479;DHT22;14163;-26.142;27.992;2024-01-30T14:45:56;28.00;99.90
26479;DHT22;14163;-26.142;27.992;2024-01-30T14:48:25;27.80;99.90
26479;DHT22;14163;-26.142;27.992;2024-01-30T14:50:59;27.50;99.90
26479;DHT22;14163;-26.142;27.992;2024-01-30T14:53:28;27.40;99.90
26479;DHT22;14163;-26.142;27.992;2024-01-30T14:55:58;27.40;99.90
26479;DHT22;14163;-26.142;27.992;2024-01-30T14:58:27;27.40;99.90
26479;DHT22;14163;-26.142;27.992;2024-01-30T15:00:56;27.50;99.90
26479;DHT22;14163;-26.142;27.992;2024-01-30T15:03:26;27.60;99.90
26479;DHT22;14163;-26.142;27.992;2024-01-30T15:05:58;27.80;99.90
26479;DHT22;14163;-26.142;27.992;2024-01-30T15:08:27;27.90;99.90
26479;DHT22;14163;-26.142;27.992;2024-01-30T15:10:56;27.90;99.90
26479;DHT22;14163;-26.142;27.992;2024-01-30T15:13:26;28.00;99.90
26479;DHT22;14163;-26.142;27.992;2024-01-30T15:15:55;28.10;99.90
26479;DHT22;14163;-26.142;27.992;2024-01-30T15:18:24;28.00;99.90
26479;DHT22;14163;-26.142;27.992;2024-01-30T15:20:53;28.20;99.90
26479;DHT22;14163;-26.142;27.992;2024-01-30T15:23:24;28.30;99.90
26479;DHT22;14163;-26.142;27.992;2024-01-30T15:25:53;28.40;99.90
26479;DHT22;14163;-26.142;27.992;2024-01-30T15:28:34;28.40;99.90
26479;DHT22;14163;-26.142;27.992;2024-01-30T15:31:05;28.30;99.90
26479;DHT22;14163;-26.142;27.992;2024-01-30T15:33:34;28.30;99.90
26479;DHT22;14163;-26.142;27.992;2024-01-30T15:36:04;28.20;99.90
26479;DHT22;14163;-26.142;27.992;2024-01-30T15:38:35;28.20;99.90
26479;DHT22;14163;-26.142;27.992;2024-01-30T15:41:04;28.10;99.90
26479;DHT22;14163;-26.142;27.992;2024-01-30T15:43:33;28.10;99.90
26479;DHT22;14163;-26.142;27.992;2024-01-30T15:46:03;28.20;99.90
26479;DHT22;14163;-26.142;27.992;2024-01-30T15:48:33;28.20;99.90
26479;DHT22;14163;-26.142;27.992;2024-01-30T15:51:02;28.20;99.90
26479;DHT22;14163;-26.142;27.992;2024-01-30T15:53:31;28.10;99.90
26479;DHT22;14163;-26.142;27.992;2024-01-30T15:56:05;28.20;99.90
26479;DHT22;14163;-26.142;27.992;2024-01-30T15:58:35;28.20;99.90
26479;DHT22;14163;-26.142;27.992;2024-01-30T16:01:04;28.20;99.90
26479;DHT22;14163;-26.142;27.992;2024-01-30T16:03:33;28.20;99.90
26479;DHT22;14163;-26.142;27.992;2024-01-30T16:06:03;28.30;99.90
26479;DHT22;14163;-26.142;27.992;2024-01-30T16:08:32;28.40;99.90
26479;DHT22;14163;-26.142;27.992;2024-01-30T16:11:01;28.40;99.90
26479;DHT22;14163;-26.142;27.992;2024-01-30T16:13:32;28.50;99.90
26479;DHT22;14163;-26.142;27.992;2024-01-30T16:16:02;28.50;99.90
26479;DHT22;14163;-26.142;27.992;2024-01-30T16:18:32;28.50;99.90
26479;DHT22;14163;-26.142;27.992;2024-01-30T16:21:02;28.50;99.90
26479;DHT22;14163;-26.142;27.992;2024-01-30T16:23:31;28.50;99.90
26479;DHT22;14163;-26.142;27.992;2024-01-30T16:26:00;28.50;99.90
26479;DHT22;14163;-26.142;27.992;2024-01-30T16:28:31;28.60;99.90
26479;DHT22;14163;-26.142;27.992;2024-01-30T16:31:03;28.70;99.90
26479;DHT22;14163;-26.142;27.992;2024-01-30T16:33:32;28.60;99.90
26479;DHT22;14163;-26.142;27.992;2024-01-30T16:36:01;28.70;99.90
26479;DHT22;14163;-26.142;27.992;2024-01-30T16:38:30;28.70;99.90
26479;DHT22;14163;-26.142;27.992;2024-01-30T16:41:00;28.80;99.90
26479;DHT22;14163;-26.142;27.992;2024-01-30T16:43:31;28.70;99.90
26479;DHT22;14163;-26.142;27.992;2024-01-30T16:46:00;28.70;99.90
26479;DHT22;14163;-26.142;27.992;2024-01-30T16:48:29;28.70;99.90
26479;DHT22;14163;-26.142;27.992;2024-01-30T16:50:58;28.70;99.90
26479;DHT22;14163;-26.142;27.992;2024-01-30T16:53:27;28.70;99.90
26479;DHT22;14163;-26.142;27.992;2024-01-30T16:55:57;28.70;99.90
26479;DHT22;14163;-26.142;27.992;2024-01-30T16:58:26;28.70;99.90
26479;DHT22;14163;-26.142;27.992;2024-01-30T17:00:56;28.50;99.90
26479;DHT22;14163;-26.142;27.992;2024-01-30T17:03:26;28.40;99.90
26479;DHT22;14163;-26.142;27.992;2024-01-30T17:05:55;28.30;99.90
26479;DHT22;14163;-26.142;27.992;2024-01-30T17:08:31;28.20;99.90
26479;DHT22;14163;-26.142;27.992;2024-01-30T17:11:00;28.10;99.90
26479;DHT22;14163;-26.142;27.992;2024-01-30T17:13:30;28.00;99.90
26479;DHT22;14163;-26.142;27.992;2024-01-30T17:16:01;28.00;99.90
26479;DHT22;14163;-26.142;27.992;2024-01-30T17:18:31;27.90;99.90
26479;DHT22;14163;-26.142;27.992;2024-01-30T17:21:00;27.90;99.90
26479;DHT22;14163;-26.142;27.992;2024-01-30T17:23:29;27.90;99.90
26479;DHT22;14163;-26.142;27.992;2024-01-30T17:26:00;27.80;99.90
26479;DHT22;14163;-26.142;27.992;2024-01-30T17:28:30;27.70;99.90
26479;DHT22;14163;-26.142;27.992;2024-01-30T17:31:00;27.70;99.90